»·PEaware :: N522PM KPSP-KCRQ

N522PM :: KPSP-KCRQ

FLIGHT INFORMATION

Flight Status: Arrived
Operator: Privately registered:
United States
More flights under this callsign
Pilot: Bruce B. (6887)
Aircraft: BEECH AIRCRAFT BONANZA
(BE36)
More flights by this aircraft type
Origin: KPSP Palm Springs Intl
United States
Destination: KCRQ McClellan-Palomar
United States
More flights between these airports :: More routes between these airports
Route: TRM
File this flight plan on PilotEdge
Remarks:
Altitude:
(Current/Filed)
8,500ft
Speed:
(Current/Filed)
160kts
Departed: 28-Dec-17 03:46 PM
Arrived: 28-Dec-17 04:26 PM
Distance/Time
Traveled:
57nm/0:40
Distance/Time
To Go:
Arrived

Flight Plot

Page will automatically refresh every two minutes.

Flight plan parsing failed; only flown route is shown


Map Options




Map Legend


Flown Route
Filed Route
Departure Airport
Arrival Airport
Navaid (VOR, NDB)
Fix

Horizontal Profiles

Position Reports

Time Latitude Longitude Heading Altitude Ground
Speed
28-Dec-17 15:36 33.823819 -116.498771 53 481ft 0kts
28-Dec-17 15:37 33.823819 -116.498771 53 481ft 0kts
28-Dec-17 15:38 33.823819 -116.498771 53 481ft 0kts
28-Dec-17 15:39 33.823819 -116.498771 53 481ft 0kts
28-Dec-17 15:40 33.823819 -116.498771 53 481ft 0kts
28-Dec-17 15:41 33.823819 -116.498771 53 481ft 0kts
28-Dec-17 15:42 33.823819 -116.498771 53 481ft 0kts
28-Dec-17 15:43 33.823819 -116.498771 53 481ft 0kts
28-Dec-17 15:44 33.823819 -116.498771 53 481ft 0kts
28-Dec-17 15:45 33.823819 -116.498771 53 481ft 0kts
28-Dec-17 15:46 33.822308 -116.497392 342 481ft 8kts
28-Dec-17 15:47 33.823790 -116.498450 326 481ft 0kts
28-Dec-17 15:48 33.822235 -116.497052 143 481ft 17kts
28-Dec-17 15:49 33.819467 -116.496653 232 481ft 10kts
28-Dec-17 15:50 33.819246 -116.497022 235 481ft 0kts
28-Dec-17 15:51 33.818894 -116.498076 325 481ft 0kts
28-Dec-17 15:52 33.836123 -116.513699 322 1120ft 108kts
28-Dec-17 15:53 33.861299 -116.533633 325 2494ft 107kts
28-Dec-17 15:54 33.871386 -116.560220 213 3899ft 105kts
28-Dec-17 15:55 33.849608 -116.538080 116 5342ft 97kts
28-Dec-17 15:56 33.831298 -116.507903 128 6530ft 123kts
28-Dec-17 15:57 33.808510 -116.474194 126 7238ft 133kts
28-Dec-17 15:58 33.784336 -116.437566 126 7939ft 142kts
28-Dec-17 15:59 33.759524 -116.398259 122 8494ft 153kts
28-Dec-17 16:00 33.733797 -116.352609 122 8486ft 166kts
28-Dec-17 16:01 33.707808 -116.307297 130 8481ft 161kts
28-Dec-17 16:02 33.671550 -116.272543 144 8476ft 165kts
28-Dec-17 16:03 33.631550 -116.243238 151 8460ft 164kts
28-Dec-17 16:04 33.591262 -116.218200 151 8455ft 159kts
28-Dec-17 16:05 33.550639 -116.198853 161 8462ft 155kts
28-Dec-17 16:06 33.509446 -116.183204 161 8467ft 155kts
28-Dec-17 16:07 33.467255 -116.167109 161 8474ft 159kts
28-Dec-17 16:08 33.426857 -116.187533 224 8462ft 166kts
28-Dec-17 16:09 33.395878 -116.227931 227 8482ft 162kts
28-Dec-17 16:10 33.376706 -116.278470 250 8472ft 165kts
28-Dec-17 16:11 33.361251 -116.329739 250 8485ft 161kts
28-Dec-17 16:12 33.345403 -116.382234 250 8468ft 165kts
28-Dec-17 16:13 33.331267 -116.432913 252 8486ft 158kts
28-Dec-17 16:14 33.317056 -116.485241 252 8481ft 165kts
28-Dec-17 16:15 33.302588 -116.538714 252 8467ft 164kts
28-Dec-17 16:16 33.288579 -116.590587 252 8467ft 160kts
28-Dec-17 16:17 33.275267 -116.640661 254 8477ft 158kts
28-Dec-17 16:18 33.263017 -116.694172 255 8413ft 166kts
28-Dec-17 16:19 33.250599 -116.747847 254 7779ft 168kts
28-Dec-17 16:20 33.238560 -116.803110 257 6959ft 172kts
28-Dec-17 16:21 33.227758 -116.857274 255 6098ft 162kts
28-Dec-17 16:22 33.216523 -116.909443 256 5206ft 153kts
28-Dec-17 16:23 33.205065 -116.957950 253 4681ft 151kts
28-Dec-17 16:24 33.192188 -117.004140 247 4734ft 144kts
28-Dec-17 16:25 33.175012 -117.048337 247 4672ft 148kts
28-Dec-17 16:26 33.159868 -117.098074 253 3945ft 165kts
28-Dec-17 16:27 33.148494 -117.148681 258 3760ft 148kts
28-Dec-17 16:28 33.141798 -117.191964 261 2935ft 121kts
28-Dec-17 16:29 33.136539 -117.225485 260 1569ft 95kts
28-Dec-17 16:30 33.132500 -117.252822 258 707ft 79kts
28-Dec-17 16:31 33.128745 -117.277014 260 335ft 47kts
28-Dec-17 16:32 33.127257 -117.281117 256 335ft 14kts
28-Dec-17 16:33 33.126404 -117.282800 256 335ft 0kts
28-Dec-17 16:34 33.126404 -117.282800 256 335ft 0kts

Navigation Log

Ident Type
Flight plan parsing failed, navigation log unavailable